Time;durP1;ratioP1;P1;durP2;ratioP2;P2;SDS_P1;SDS_P2;PMS_P1;PMS_P2;Temp;Humidity;BMP_temperature;BMP_pressure;BME280_temperature;BME280_humidity;BME280_pressure;Samples;Min_cycle;Max_cycle;Signal;HPM_P1;HPM_P2
2023/03/16 00:00:55;;;;;;;154.40;13.55;;;;;;;;;;4946346;28;20110;-58
2023/03/16 00:03:20;;;;;;;161.68;12.07;;;;;;;;;;4948069;28;20128;-58
2023/03/16 00:05:47;;;;;;;216.88;13.57;;;;;;;;;;4949931;28;20031;-58
2023/03/16 00:08:12;;;;;;;140.85;11.40;;;;;;;;;;4949921;28;20030;-58
2023/03/16 00:10:38;;;;;;;142.05;10.85;;;;;;;;;;4945188;28;20027;-59
2023/03/16 00:13:03;;;;;;;142.02;10.02;;;;;;;;;;4947960;28;20846;-58
2023/03/16 00:15:28;;;;;;;180.40;13.82;;;;;;;;;;4949273;28;20034;-59
2023/03/16 00:17:54;;;;;;;144.57;8.93;;;;;;;;;;4947015;28;20024;-58
2023/03/16 00:20:19;;;;;;;134.82;11.27;;;;;;;;;;4947098;28;20062;-58
2023/03/16 00:22:44;;;;;;;159.77;12.20;;;;;;;;;;4947177;28;20022;-57
2023/03/16 00:25:10;;;;;;;150.55;11.57;;;;;;;;;;4947256;28;20572;-56
2023/03/16 00:27:36;;;;;;;120.05;10.18;;;;;;;;;;4948425;28;20108;-57
2023/03/16 00:30:02;;;;;;;106.82;8.73;;;;;;;;;;4948141;28;20059;-58
2023/03/16 00:32:34;;;;;;;270.45;17.80;;;;;;;;;;4947481;28;20096;-58
2023/03/16 00:35:00;;;;;;;300.65;16.20;;;;;;;;;;4948528;28;20118;-58
2023/03/16 00:37:26;;;;;;;145.90;9.38;;;;;;;;;;4945503;28;20035;-57
2023/03/16 00:39:54;;;;;;;175.07;12.20;;;;;;;;;;4946466;28;20411;-57
2023/03/16 00:42:22;;;;;;;147.40;11.57;;;;;;;;;;4947764;28;20392;-57
2023/03/16 00:44:48;;;;;;;150.48;11.85;;;;;;;;;;4948861;28;20573;-58
2023/03/16 00:47:13;;;;;;;134.23;9.73;;;;;;;;;;4952146;28;20039;-58
2023/03/16 00:49:41;;;;;;;146.13;8.15;;;;;;;;;;4949486;28;20031;-58
2023/03/16 00:52:08;;;;;;;102.80;10.10;;;;;;;;;;4949523;28;20505;-59
2023/03/16 00:54:33;;;;;;;97.50;8.20;;;;;;;;;;4950063;28;20062;-56
2023/03/16 00:56:59;;;;;;;131.48;11.18;;;;;;;;;;4949676;28;20174;-59
2023/03/16 00:59:28;;;;;;;99.45;8.77;;;;;;;;;;4951395;28;20031;-57
2023/03/16 01:01:53;;;;;;;155.90;9.43;;;;;;;;;;4953246;28;20092;-56
2023/03/16 01:04:19;;;;;;;126.65;7.32;;;;;;;;;;4951265;28;20031;-58
2023/03/16 01:06:45;;;;;;;119.05;9.40;;;;;;;;;;4949750;28;20493;-57
2023/03/16 01:09:10;;;;;;;254.93;13.35;;;;;;;;;;4951054;28;20023;-57
2023/03/16 01:11:36;;;;;;;126.35;9.88;;;;;;;;;;4951567;28;20310;-57
2023/03/16 01:14:01;;;;;;;126.07;11.07;;;;;;;;;;4951391;28;20022;-57
2023/03/16 01:16:27;;;;;;;127.03;10.18;;;;;;;;;;4951010;28;20070;-58
2023/03/16 01:18:52;;;;;;;125.13;9.60;;;;;;;;;;4952204;28;20162;-57
2023/03/16 01:21:17;;;;;;;161.57;10.20;;;;;;;;;;4950479;28;20092;-58
2023/03/16 01:23:43;;;;;;;185.23;12.68;;;;;;;;;;4950485;28;20023;-57
2023/03/16 01:26:08;;;;;;;168.55;12.43;;;;;;;;;;4950743;28;20035;-56
2023/03/16 01:28:34;;;;;;;168.70;11.52;;;;;;;;;;4950274;28;20019;-58
2023/03/16 01:31:01;;;;;;;137.00;10.07;;;;;;;;;;4949639;28;20043;-57
2023/03/16 01:33:26;;;;;;;134.15;11.05;;;;;;;;;;4950425;28;20025;-57
2023/03/16 01:36:02;;;;;;;111.68;8.77;;;;;;;;;;4951534;28;20790;-57
2023/03/16 01:38:28;;;;;;;140.90;11.35;;;;;;;;;;4951388;28;20027;-58
2023/03/16 01:40:53;;;;;;;170.18;12.30;;;;;;;;;;4950132;28;20562;-58
2023/03/16 01:43:19;;;;;;;147.38;10.73;;;;;;;;;;4949788;28;20023;-56
2023/03/16 01:46:03;;;;;;;158.80;12.30;;;;;;;;;;4948158;28;20121;-59
2023/03/16 01:48:36;;;;;;;112.43;8.15;;;;;;;;;;4951100;28;20023;-59
2023/03/16 01:51:02;;;;;;;176.93;11.15;;;;;;;;;;4950657;28;20038;-57
2023/03/16 01:53:27;;;;;;;125.97;9.95;;;;;;;;;;4949954;28;20030;-57
2023/03/16 01:55:54;;;;;;;157.30;11.18;;;;;;;;;;4948730;28;20031;-56
2023/03/16 01:58:19;;;;;;;149.15;10.05;;;;;;;;;;4949068;28;20078;-56
2023/03/16 02:00:44;;;;;;;126.78;10.82;;;;;;;;;;4949666;28;20428;-57
2023/03/16 02:03:20;;;;;;;209.38;12.23;;;;;;;;;;4947867;28;20117;-58
2023/03/16 02:05:51;;;;;;;158.82;11.80;;;;;;;;;;4949560;28;20177;-58
2023/03/16 02:08:17;;;;;;;201.75;13.30;;;;;;;;;;4949147;28;20038;-58
2023/03/16 02:10:44;;;;;;;167.35;11.07;;;;;;;;;;4949106;28;20031;-56
2023/03/16 02:13:10;;;;;;;182.65;11.95;;;;;;;;;;4948933;28;20019;-57
2023/03/16 02:15:35;;;;;;;173.55;12.15;;;;;;;;;;4950190;28;20070;-58
2023/03/16 02:18:01;;;;;;;172.73;14.32;;;;;;;;;;4950718;28;20022;-58
2023/03/16 02:20:36;;;;;;;119.85;8.60;;;;;;;;;;4949566;28;20098;-58
2023/03/16 02:23:06;;;;;;;121.40;9.23;;;;;;;;;;4950707;28;20028;-58
2023/03/16 02:25:34;;;;;;;122.72;10.88;;;;;;;;;;4948713;28;20047;-58
2023/03/16 02:28:03;;;;;;;118.78;10.43;;;;;;;;;;4949438;28;20090;-56
2023/03/16 02:30:28;;;;;;;118.88;9.13;;;;;;;;;;4950114;28;20086;-59
2023/03/16 02:32:54;;;;;;;166.85;11.93;;;;;;;;;;4948149;28;20027;-58
2023/03/16 02:35:19;;;;;;;133.35;10.02;;;;;;;;;;4948299;28;20074;-57
2023/03/16 02:37:45;;;;;;;104.63;10.05;;;;;;;;;;4949741;28;20027;-58
2023/03/16 02:40:20;;;;;;;117.25;8.30;;;;;;;;;;4949717;28;20007;-58
2023/03/16 02:42:46;;;;;;;127.22;10.05;;;;;;;;;;4948765;28;20094;-57
2023/03/16 02:45:11;;;;;;;130.25;9.20;;;;;;;;;;4955898;28;20031;-57
2023/03/16 02:47:41;;;;;;;102.78;7.43;;;;;;;;;;4949687;28;20026;-56
2023/03/16 02:50:07;;;;;;;129.52;9.57;;;;;;;;;;4949327;28;20096;-58
2023/03/16 02:52:33;;;;;;;107.78;6.38;;;;;;;;;;4947525;28;20043;-58
2023/03/16 02:54:58;;;;;;;106.95;8.32;;;;;;;;;;4947303;28;20077;-58
2023/03/16 02:57:23;;;;;;;123.57;8.38;;;;;;;;;;4948652;28;20043;-58
2023/03/16 02:59:48;;;;;;;128.73;9.43;;;;;;;;;;4948641;28;20034;-57
2023/03/16 03:02:14;;;;;;;133.18;9.70;;;;;;;;;;4948785;28;20066;-57
2023/03/16 03:04:39;;;;;;;119.47;9.25;;;;;;;;;;4949654;28;20082;-56
2023/03/16 03:07:05;;;;;;;87.90;8.43;;;;;;;;;;4948540;28;20157;-58
2023/03/16 03:09:31;;;;;;;113.93;8.80;;;;;;;;;;4947480;28;20750;-55
2023/03/16 03:11:57;;;;;;;103.32;8.43;;;;;;;;;;4949032;28;20074;-56
2023/03/16 03:14:24;;;;;;;120.25;8.70;;;;;;;;;;4949733;28;20027;-56
2023/03/16 03:16:51;;;;;;;143.75;9.82;;;;;;;;;;4948747;28;20553;-57
2023/03/16 03:19:16;;;;;;;130.70;9.25;;;;;;;;;;4949306;28;20039;-58
2023/03/16 03:21:41;;;;;;;110.72;9.27;;;;;;;;;;4948743;28;20038;-58
2023/03/16 03:24:07;;;;;;;144.93;10.40;;;;;;;;;;4944978;28;20035;-57
2023/03/16 03:26:32;;;;;;;120.68;9.57;;;;;;;;;;4948852;28;20126;-58
2023/03/16 03:28:57;;;;;;;143.10;9.73;;;;;;;;;;4949315;28;20741;-56
2023/03/16 03:31:23;;;;;;;132.52;10.13;;;;;;;;;;4947119;28;20107;-59
2023/03/16 03:33:48;;;;;;;116.57;9.18;;;;;;;;;;4948984;28;20274;-58
2023/03/16 03:36:13;;;;;;;150.63;9.63;;;;;;;;;;4948677;28;20032;-58
2023/03/16 03:38:39;;;;;;;102.60;7.72;;;;;;;;;;4949158;28;20026;-57
2023/03/16 03:41:07;;;;;;;116.47;9.32;;;;;;;;;;4948099;28;20539;-58
2023/03/16 03:43:32;;;;;;;120.15;8.52;;;;;;;;;;4948679;28;20540;-58
2023/03/16 03:46:01;;;;;;;108.55;9.38;;;;;;;;;;4949473;28;20045;-58
2023/03/16 03:48:26;;;;;;;146.30;9.30;;;;;;;;;;4947728;28;20019;-56
2023/03/16 03:50:52;;;;;;;120.20;8.43;;;;;;;;;;4947817;28;20898;-58
2023/03/16 03:53:18;;;;;;;122.13;7.03;;;;;;;;;;4948248;28;20019;-58
2023/03/16 03:55:43;;;;;;;128.88;8.07;;;;;;;;;;4947979;28;20557;-57
2023/03/16 03:58:08;;;;;;;114.95;8.95;;;;;;;;;;4948611;28;20031;-56
2023/03/16 04:00:34;;;;;;;111.32;7.75;;;;;;;;;;4947187;28;20076;-58
2023/03/16 04:02:59;;;;;;;121.13;9.43;;;;;;;;;;4946544;28;20126;-57
2023/03/16 04:05:27;;;;;;;107.60;8.55;;;;;;;;;;4948797;28;20038;-58
2023/03/16 04:07:56;;;;;;;156.32;9.40;;;;;;;;;;4949191;28;20207;-58
2023/03/16 04:10:25;;;;;;;130.60;9.07;;;;;;;;;;4947208;28;20543;-57
2023/03/16 04:12:50;;;;;;;122.95;8.18;;;;;;;;;;4948494;28;20035;-58
2023/03/16 04:15:16;;;;;;;126.50;7.95;;;;;;;;;;4956399;28;20023;-57
2023/03/16 04:17:41;;;;;;;118.32;7.63;;;;;;;;;;4949057;28;20081;-58
2023/03/16 04:20:13;;;;;;;118.53;9.65;;;;;;;;;;4949080;28;20061;-58
2023/03/16 04:22:38;;;;;;;117.97;8.52;;;;;;;;;;4951314;28;20050;-55
2023/03/16 04:25:04;;;;;;;113.90;8.60;;;;;;;;;;4951786;28;20039;-57
2023/03/16 04:27:29;;;;;;;112.03;5.20;;;;;;;;;;4952293;28;20106;-57
2023/03/16 04:29:57;;;;;;;137.55;7.88;;;;;;;;;;4953878;28;20074;-57
2023/03/16 04:32:25;;;;;;;178.73;9.88;;;;;;;;;;4948723;28;20023;-58
2023/03/16 04:34:54;;;;;;;141.13;8.63;;;;;;;;;;4952644;28;20500;-56
2023/03/16 04:37:21;;;;;;;114.65;8.05;;;;;;;;;;4953417;28;20039;-58
2023/03/16 04:39:46;;;;;;;124.35;7.93;;;;;;;;;;4951560;28;20086;-57
2023/03/16 04:42:11;;;;;;;104.70;7.47;;;;;;;;;;4951376;28;20382;-58
2023/03/16 04:44:43;;;;;;;126.40;8.35;;;;;;;;;;4951830;28;20473;-57
2023/03/16 04:47:08;;;;;;;111.13;8.35;;;;;;;;;;4951880;28;20062;-56
2023/03/16 04:49:33;;;;;;;96.40;6.90;;;;;;;;;;4950598;28;20448;-56
2023/03/16 04:51:59;;;;;;;144.55;8.73;;;;;;;;;;4950217;28;20035;-56
2023/03/16 04:54:25;;;;;;;102.10;6.28;;;;;;;;;;4951392;28;20019;-55
2023/03/16 04:56:51;;;;;;;96.43;7.32;;;;;;;;;;4950921;28;20062;-56
2023/03/16 04:59:16;;;;;;;117.85;7.85;;;;;;;;;;4950649;28;20039;-58
2023/03/16 05:01:42;;;;;;;107.60;6.45;;;;;;;;;;4952915;28;20035;-56
2023/03/16 05:04:07;;;;;;;120.50;7.55;;;;;;;;;;4950623;28;20019;-58
2023/03/16 05:06:32;;;;;;;114.20;7.65;;;;;;;;;;4950471;28;20827;-56
2023/03/16 05:08:59;;;;;;;110.82;7.25;;;;;;;;;;4952586;28;20477;-58
2023/03/16 05:11:24;;;;;;;135.27;8.00;;;;;;;;;;4951918;28;20027;-57
2023/03/16 05:13:50;;;;;;;118.30;8.00;;;;;;;;;;4949655;28;20027;-58
2023/03/16 05:16:15;;;;;;;100.93;7.10;;;;;;;;;;4950143;28;20055;-59
2023/03/16 05:18:40;;;;;;;129.45;8.27;;;;;;;;;;4949862;28;20027;-58
2023/03/16 05:21:05;;;;;;;106.28;7.18;;;;;;;;;;4949887;28;20039;-58
2023/03/16 05:23:31;;;;;;;145.65;8.70;;;;;;;;;;4949120;28;20019;-57
2023/03/16 05:25:58;;;;;;;109.57;7.90;;;;;;;;;;4952253;28;20982;-56
2023/03/16 05:28:24;;;;;;;100.53;6.50;;;;;;;;;;4951160;28;20011;-58
2023/03/16 05:30:50;;;;;;;138.27;8.00;;;;;;;;;;4948784;28;20038;-57
2023/03/16 05:33:15;;;;;;;110.97;7.20;;;;;;;;;;4951128;28;20134;-58
2023/03/16 05:35:41;;;;;;;121.20;7.78;;;;;;;;;;4949747;28;20178;-57
2023/03/16 05:38:08;;;;;;;151.45;8.60;;;;;;;;;;4950657;28;20276;-58
2023/03/16 05:40:34;;;;;;;119.25;7.97;;;;;;;;;;4949072;28;20766;-56
2023/03/16 05:42:59;;;;;;;188.35;9.52;;;;;;;;;;4949049;28;20057;-56
2023/03/16 05:45:25;;;;;;;99.53;7.53;;;;;;;;;;4948912;28;20041;-56
2023/03/16 05:47:51;;;;;;;99.50;7.30;;;;;;;;;;4948641;28;20034;-57
2023/03/16 05:50:16;;;;;;;154.55;9.85;;;;;;;;;;4949660;28;20046;-58
2023/03/16 05:52:43;;;;;;;117.25;8.23;;;;;;;;;;4949392;28;20023;-55
2023/03/16 05:55:09;;;;;;;143.38;9.20;;;;;;;;;;4948707;28;20082;-59
2023/03/16 05:57:34;;;;;;;119.38;8.50;;;;;;;;;;4949189;28;20576;-57
2023/03/16 06:00:00;;;;;;;116.57;7.72;;;;;;;;;;4950909;28;20031;-57
2023/03/16 06:02:26;;;;;;;1097.63;67.35;;;;;;;;;;4947735;28;20153;-56
2023/03/16 06:04:51;;;;;;;1999.90;180.98;;;;;;;;;;4949333;28;20046;-58
2023/03/16 06:07:16;;;;;;;1999.90;478.43;;;;;;;;;;4950253;28;20035;-57
2023/03/16 06:09:42;;;;;;;1903.40;115.47;;;;;;;;;;4948570;28;20342;-56
2023/03/16 06:12:08;;;;;;;1999.90;225.55;;;;;;;;;;4947535;28;20050;-58
2023/03/16 06:14:33;;;;;;;133.10;9.85;;;;;;;;;;4949504;28;20065;-56
2023/03/16 06:16:58;;;;;;;115.20;7.78;;;;;;;;;;4946818;28;20305;-58
2023/03/16 06:19:24;;;;;;;101.57;7.82;;;;;;;;;;4949466;28;20026;-58
2023/03/16 06:21:49;;;;;;;127.72;6.32;;;;;;;;;;4948841;28;20049;-58
2023/03/16 06:24:14;;;;;;;109.30;8.37;;;;;;;;;;4946935;28;20575;-55
2023/03/16 06:26:40;;;;;;;125.30;13.40;;;;;;;;;;4950719;28;20900;-57
2023/03/16 06:29:05;;;;;;;120.88;6.40;;;;;;;;;;4949430;28;20019;-56
2023/03/16 06:31:30;;;;;;;87.57;7.28;;;;;;;;;;4946174;28;20115;-55
2023/03/16 06:33:55;;;;;;;101.30;8.30;;;;;;;;;;4947667;28;20034;-58
2023/03/16 06:36:20;;;;;;;99.63;7.33;;;;;;;;;;4948169;28;20511;-57
2023/03/16 06:38:46;;;;;;;84.67;5.93;;;;;;;;;;4949769;28;20397;-57
2023/03/16 06:41:11;;;;;;;104.88;6.88;;;;;;;;;;4949066;28;20404;-57
2023/03/16 06:43:36;;;;;;;87.30;4.88;;;;;;;;;;4948186;28;20038;-57
2023/03/16 06:46:02;;;;;;;82.70;4.97;;;;;;;;;;4951583;28;20023;-59
2023/03/16 06:48:27;;;;;;;108.05;8.75;;;;;;;;;;4948933;28;20270;-59
2023/03/16 06:50:53;;;;;;;77.45;5.82;;;;;;;;;;4949482;28;20046;-58
2023/03/16 06:53:18;;;;;;;92.68;7.50;;;;;;;;;;4947454;28;20477;-59
2023/03/16 06:55:43;;;;;;;99.15;8.40;;;;;;;;;;4948403;28;20035;-57
2023/03/16 06:58:08;;;;;;;97.45;10.80;;;;;;;;;;4949436;28;20061;-60
2023/03/16 07:00:34;;;;;;;106.63;7.60;;;;;;;;;;4947787;28;20086;-57
2023/03/16 07:03:00;;;;;;;78.00;4.90;;;;;;;;;;4949666;28;20544;-58
2023/03/16 07:05:25;;;;;;;93.10;7.97;;;;;;;;;;4949324;28;20369;-57
2023/03/16 07:07:51;;;;;;;98.18;6.05;;;;;;;;;;4949729;28;20054;-57
2023/03/16 07:10:16;;;;;;;96.75;5.57;;;;;;;;;;4948749;28;20489;-59
2023/03/16 07:12:42;;;;;;;107.15;8.88;;;;;;;;;;4949920;28;20026;-58
2023/03/16 07:15:08;;;;;;;91.70;7.32;;;;;;;;;;4947365;28;20110;-57
2023/03/16 07:17:33;;;;;;;88.72;6.57;;;;;;;;;;4949628;28;20012;-57
2023/03/16 07:19:58;;;;;;;99.43;8.02;;;;;;;;;;4947898;28;20022;-59
2023/03/16 07:22:24;;;;;;;108.37;7.50;;;;;;;;;;4947139;28;20157;-57
2023/03/16 07:24:56;;;;;;;86.97;7.88;;;;;;;;;;4948626;28;20314;-58
2023/03/16 07:27:22;;;;;;;90.80;7.63;;;;;;;;;;4948084;28;20039;-60
2023/03/16 07:29:47;;;;;;;74.53;7.15;;;;;;;;;;4948573;28;20034;-58
2023/03/16 07:32:12;;;;;;;106.05;8.25;;;;;;;;;;4948994;28;20119;-59
2023/03/16 07:34:38;;;;;;;116.13;8.65;;;;;;;;;;4947769;28;20033;-59
2023/03/16 07:37:04;;;;;;;119.10;7.05;;;;;;;;;;4947150;28;20054;-58
2023/03/16 07:39:30;;;;;;;115.00;7.25;;;;;;;;;;4947774;28;20043;-57
2023/03/16 07:41:55;;;;;;;95.28;7.30;;;;;;;;;;4946036;28;20648;-58
2023/03/16 07:44:21;;;;;;;97.40;7.13;;;;;;;;;;4948732;28;20405;-58
2023/03/16 07:46:46;;;;;;;107.23;7.40;;;;;;;;;;4948102;28;20062;-59
2023/03/16 07:49:12;;;;;;;67.90;5.85;;;;;;;;;;4949006;28;20541;-58
2023/03/16 07:51:37;;;;;;;88.70;7.22;;;;;;;;;;4947098;28;20505;-59
2023/03/16 07:54:03;;;;;;;81.00;5.78;;;;;;;;;;4947826;28;20074;-59
2023/03/16 07:56:28;;;;;;;96.10;7.13;;;;;;;;;;4952217;28;20046;-58
2023/03/16 07:58:53;;;;;;;114.63;7.97;;;;;;;;;;4950652;28;20074;-59
2023/03/16 08:01:18;;;;;;;89.30;6.77;;;;;;;;;;4949463;28;21072;-58
2023/03/16 08:03:44;;;;;;;98.03;7.10;;;;;;;;;;4950669;28;20304;-59
2023/03/16 08:06:10;;;;;;;126.23;8.73;;;;;;;;;;4950492;28;20129;-60
2023/03/16 08:08:36;;;;;;;94.72;5.55;;;;;;;;;;4953112;28;20618;-60
2023/03/16 08:11:01;;;;;;;76.53;6.03;;;;;;;;;;4953322;28;20035;-58
2023/03/16 08:13:27;;;;;;;96.75;8.35;;;;;;;;;;4952827;28;20318;-59
2023/03/16 08:15:57;;;;;;;94.55;7.60;;;;;;;;;;4952363;28;20062;-57
2023/03/16 08:18:23;;;;;;;111.30;7.90;;;;;;;;;;4951655;28;20424;-60
2023/03/16 08:20:48;;;;;;;74.75;6.15;;;;;;;;;;4950825;28;20556;-61
2023/03/16 08:23:14;;;;;;;81.88;6.80;;;;;;;;;;4950046;28;20170;-57
2023/03/16 08:25:39;;;;;;;129.35;8.73;;;;;;;;;;4952321;28;20077;-57
2023/03/16 08:28:05;;;;;;;82.18;6.85;;;;;;;;;;4950795;28;20030;-58
2023/03/16 08:30:30;;;;;;;118.63;7.53;;;;;;;;;;4950528;28;20039;-60
2023/03/16 08:32:56;;;;;;;101.00;6.07;;;;;;;;;;4951700;28;20027;-58
2023/03/16 08:35:21;;;;;;;88.85;7.78;;;;;;;;;;4951161;28;20027;-59
2023/03/16 08:37:48;;;;;;;107.43;8.18;;;;;;;;;;4951233;28;20057;-57
2023/03/16 08:40:17;;;;;;;93.93;7.00;;;;;;;;;;4951545;28;20023;-60
2023/03/16 08:42:43;;;;;;;102.63;7.50;;;;;;;;;;4950355;28;20019;-59
2023/03/16 08:45:10;;;;;;;108.65;7.53;;;;;;;;;;4950685;28;20505;-59
2023/03/16 08:47:35;;;;;;;87.60;6.45;;;;;;;;;;4954025;28;20744;-60
2023/03/16 08:50:01;;;;;;;100.82;6.72;;;;;;;;;;4952018;28;20030;-60
2023/03/16 08:52:26;;;;;;;125.15;7.13;;;;;;;;;;4951605;28;20049;-59
2023/03/16 08:54:51;;;;;;;92.60;5.60;;;;;;;;;;4950214;28;20144;-61
2023/03/16 08:57:17;;;;;;;113.57;7.00;;;;;;;;;;4951494;28;20035;-57
2023/03/16 08:59:43;;;;;;;113.53;7.00;;;;;;;;;;4951595;28;20293;-58
2023/03/16 09:02:11;;;;;;;103.20;6.70;;;;;;;;;;4951149;28;20159;-58
2023/03/16 09:04:36;;;;;;;102.75;6.18;;;;;;;;;;4953301;28;20090;-58
2023/03/16 09:07:02;;;;;;;113.78;6.72;;;;;;;;;;4951608;28;20034;-57
2023/03/16 09:09:29;;;;;;;105.63;6.78;;;;;;;;;;4951564;28;20031;-60
2023/03/16 09:11:54;;;;;;;86.60;6.35;;;;;;;;;;4950405;28;20027;-59
2023/03/16 09:14:19;;;;;;;87.50;5.57;;;;;;;;;;4951501;28;20027;-59
2023/03/16 09:16:44;;;;;;;109.83;7.43;;;;;;;;;;4951154;28;20278;-59
2023/03/16 09:19:10;;;;;;;96.27;6.33;;;;;;;;;;4950888;28;20286;-57
2023/03/16 09:21:36;;;;;;;88.40;5.70;;;;;;;;;;4949761;28;20346;-60
2023/03/16 09:24:01;;;;;;;96.20;5.72;;;;;;;;;;4952467;28;20183;-58
2023/03/16 09:26:27;;;;;;;78.83;4.73;;;;;;;;;;4950822;28;20112;-58
2023/03/16 09:28:53;;;;;;;108.55;6.60;;;;;;;;;;4951873;28;20254;-58
2023/03/16 09:31:18;;;;;;;102.32;6.22;;;;;;;;;;4949871;28;20031;-58
2023/03/16 09:33:45;;;;;;;96.95;5.95;;;;;;;;;;4953084;28;20015;-58
2023/03/16 09:36:10;;;;;;;122.40;6.68;;;;;;;;;;4950665;28;20035;-59
2023/03/16 09:38:36;;;;;;;90.95;5.18;;;;;;;;;;4952181;28;20074;-61
2023/03/16 09:41:05;;;;;;;98.57;5.72;;;;;;;;;;4957931;28;20038;-60
2023/03/16 09:43:33;;;;;;;98.68;6.10;;;;;;;;;;4950569;28;20030;-60
2023/03/16 09:46:08;;;;;;;112.70;6.65;;;;;;;;;;4950440;28;20046;-59
2023/03/16 09:48:35;;;;;;;117.43;6.93;;;;;;;;;;4949251;28;20055;-59
2023/03/16 09:51:03;;;;;;;95.53;6.00;;;;;;;;;;4949903;28;20524;-58
2023/03/16 09:53:38;;;;;;;131.55;7.65;;;;;;;;;;4949059;28;20034;-58
2023/03/16 10:05:08;;;;;;;107.57;6.32;;;;;;;;;;4950059;28;20122;-60
2023/03/16 10:07:53;;;;;;;112.05;6.35;;;;;;;;;;4950233;28;20039;-58
2023/03/16 10:10:23;;;;;;;101.65;6.20;;;;;;;;;;4957333;28;20027;-60
2023/03/16 10:12:51;;;;;;;107.15;6.63;;;;;;;;;;4950015;28;20065;-60
2023/03/16 10:15:22;;;;;;;101.65;5.88;;;;;;;;;;4950148;28;20301;-57
2023/03/16 10:17:57;;;;;;;94.85;5.50;;;;;;;;;;4950357;28;20034;-56
2023/03/16 10:20:22;;;;;;;81.00;5.07;;;;;;;;;;4949012;28;20023;-58
2023/03/16 10:22:51;;;;;;;77.50;4.97;;;;;;;;;;4951290;28;20027;-58
2023/03/16 10:25:19;;;;;;;120.32;6.70;;;;;;;;;;4948282;28;20098;-57
2023/03/16 10:27:45;;;;;;;101.40;6.45;;;;;;;;;;4949801;28;20027;-58
2023/03/16 10:30:18;;;;;;;103.03;6.50;;;;;;;;;;4949943;28;20029;-61
2023/03/16 10:32:44;;;;;;;108.68;6.60;;;;;;;;;;4950994;28;20023;-59
2023/03/16 10:35:21;;;;;;;108.00;6.32;;;;;;;;;;4950349;28;20027;-59
2023/03/16 10:37:47;;;;;;;79.30;5.65;;;;;;;;;;4957760;28;20036;-58
2023/03/16 10:40:13;;;;;;;94.63;6.35;;;;;;;;;;4949598;28;20568;-58
2023/03/16 10:42:38;;;;;;;114.88;6.80;;;;;;;;;;4950298;28;20269;-59
2023/03/16 10:45:04;;;;;;;108.82;6.60;;;;;;;;;;4949196;28;20024;-59
2023/03/16 10:47:31;;;;;;;101.22;6.22;;;;;;;;;;4947487;28;20042;-58
2023/03/16 10:49:56;;;;;;;116.07;6.72;;;;;;;;;;4949832;28;20388;-58
2023/03/16 10:52:22;;;;;;;115.38;6.70;;;;;;;;;;4948758;28;20126;-61
2023/03/16 10:55:06;;;;;;;105.18;6.28;;;;;;;;;;4948566;28;20046;-58
2023/03/16 10:57:32;;;;;;;105.10;6.40;;;;;;;;;;4948651;28;20039;-60
2023/03/16 11:00:14;;;;;;;123.68;6.75;;;;;;;;;;4949410;28;20498;-61
2023/03/16 11:02:39;;;;;;;88.82;5.63;;;;;;;;;;4947054;28;20058;-59
2023/03/16 11:05:11;;;;;;;131.73;7.35;;;;;;;;;;4950069;28;20024;-59
2023/03/16 11:07:38;;;;;;;99.05;6.05;;;;;;;;;;4949202;28;20519;-58
2023/03/16 11:10:11;;;;;;;96.43;5.53;;;;;;;;;;4950080;28;20042;-58
2023/03/16 11:12:37;;;;;;;103.85;6.10;;;;;;;;;;4948346;28;20188;-59
2023/03/16 11:15:04;;;;;;;119.30;6.53;;;;;;;;;;4950544;28;20095;-59
2023/03/16 11:17:36;;;;;;;114.03;6.75;;;;;;;;;;4948830;28;20480;-58
2023/03/16 11:20:11;;;;;;;109.00;6.63;;;;;;;;;;4948315;28;20027;-60
2023/03/16 11:22:37;;;;;;;115.65;6.53;;;;;;;;;;4949202;28;20083;-59
2023/03/16 11:25:03;;;;;;;97.07;5.70;;;;;;;;;;4948499;28;20121;-57
2023/03/16 11:27:28;;;;;;;75.65;5.20;;;;;;;;;;4948252;28;20097;-58
2023/03/16 11:29:53;;;;;;;98.53;5.77;;;;;;;;;;4947886;28;20023;-58
2023/03/16 11:32:21;;;;;;;146.93;7.50;;;;;;;;;;4946673;28;20344;-60
2023/03/16 11:34:47;;;;;;;113.38;6.45;;;;;;;;;;4949730;28;20607;-58
2023/03/16 11:37:20;;;;;;;93.57;5.57;;;;;;;;;;4947620;28;20053;-58
2023/03/16 11:40:01;;;;;;;112.05;5.97;;;;;;;;;;4947167;28;20042;-61
2023/03/16 11:42:29;;;;;;;138.88;7.00;;;;;;;;;;4949780;28;20200;-59
2023/03/16 11:45:00;;;;;;;96.88;5.68;;;;;;;;;;4947824;28;20011;-58
2023/03/16 11:47:31;;;;;;;91.32;5.38;;;;;;;;;;4948739;28;20786;-58
2023/03/16 11:50:06;;;;;;;86.32;4.78;;;;;;;;;;4949709;28;20029;-59
2023/03/16 11:52:49;;;;;;;106.88;5.82;;;;;;;;;;4948311;28;20484;-58
2023/03/16 11:55:34;;;;;;;122.78;6.55;;;;;;;;;;4947105;28;20038;-59
2023/03/16 11:58:11;;;;;;;106.22;6.13;;;;;;;;;;4948946;28;20023;-59
2023/03/16 12:00:38;;;;;;;134.00;6.75;;;;;;;;;;4948135;28;20091;-59
2023/03/16 12:03:21;;;;;;;122.00;5.97;;;;;;;;;;4948165;28;20531;-58
2023/03/16 12:06:00;;;;;;;99.50;5.70;;;;;;;;;;4948675;28;20055;-58
2023/03/16 12:08:44;;;;;;;101.60;5.35;;;;;;;;;;4949976;28;20027;-59
2023/03/16 12:11:25;;;;;;;112.50;5.90;;;;;;;;;;4948308;28;20093;-59
2023/03/16 12:14:07;;;;;;;136.98;6.53;;;;;;;;;;4949189;28;20035;-58
2023/03/16 12:16:37;;;;;;;98.63;5.43;;;;;;;;;;4948608;28;20043;-57
2023/03/16 12:19:05;;;;;;;111.55;6.05;;;;;;;;;;4948495;28;20059;-60
2023/03/16 12:21:32;;;;;;;112.13;5.97;;;;;;;;;;4946827;28;20138;-58
2023/03/16 12:24:05;;;;;;;90.40;5.10;;;;;;;;;;4949323;28;20035;-59
2023/03/16 12:26:34;;;;;;;102.55;5.55;;;;;;;;;;4948696;28;20324;-58
2023/03/16 12:29:04;;;;;;;86.88;4.93;;;;;;;;;;4948768;28;20078;-57
2023/03/16 12:31:30;;;;;;;88.95;5.03;;;;;;;;;;4948564;28;20473;-58
2023/03/16 12:34:12;;;;;;;105.93;5.45;;;;;;;;;;4949398;28;20557;-58
2023/03/16 12:36:57;;;;;;;85.82;4.93;;;;;;;;;;4948823;28;20122;-60
2023/03/16 12:39:46;;;;;;;126.95;6.05;;;;;;;;;;4927658;28;20122;-59
2023/03/16 12:42:18;;;;;;;121.72;6.07;;;;;;;;;;4950774;28;20599;-59
2023/03/16 12:44:48;;;;;;;68.27;4.20;;;;;;;;;;4951614;28;20038;-60
2023/03/16 12:47:32;;;;;;;102.68;5.25;;;;;;;;;;4949770;28;20711;-58
2023/03/16 12:50:08;;;;;;;101.45;5.20;;;;;;;;;;4952386;28;20011;-58
2023/03/16 12:53:02;;;;;;;133.88;6.55;;;;;;;;;;4948644;28;20122;-58
2023/03/16 12:55:34;;;;;;;97.05;5.40;;;;;;;;;;4949304;28;20077;-60
2023/03/16 12:58:01;;;;;;;122.18;5.97;;;;;;;;;;4950719;28;20082;-58
2023/03/16 13:00:39;;;;;;;98.72;5.10;;;;;;;;;;4950735;28;20089;-59
2023/03/16 13:03:06;;;;;;;128.15;6.63;;;;;;;;;;4949311;28;20532;-59
2023/03/16 13:05:33;;;;;;;77.65;4.43;;;;;;;;;;4951790;28;20252;-57
2023/03/16 13:08:07;;;;;;;139.48;6.97;;;;;;;;;;4950139;28;20519;-59
2023/03/16 13:10:33;;;;;;;98.40;5.47;;;;;;;;;;4950581;28;20063;-59
2023/03/16 13:13:10;;;;;;;111.25;5.63;;;;;;;;;;4950153;28;20150;-59
2023/03/16 13:15:35;;;;;;;104.57;5.32;;;;;;;;;;4950389;28;20031;-60
2023/03/16 13:18:13;;;;;;;104.45;5.53;;;;;;;;;;4952118;28;20062;-59
2023/03/16 13:20:49;;;;;;;114.60;5.78;;;;;;;;;;4951049;28;20038;-57
2023/03/16 13:23:19;;;;;;;131.27;6.45;;;;;;;;;;4950104;28;20077;-58
2023/03/16 13:25:57;;;;;;;113.13;6.07;;;;;;;;;;4951358;28;20054;-58
2023/03/16 13:28:26;;;;;;;128.23;6.53;;;;;;;;;;4947972;28;20030;-59
2023/03/16 13:30:51;;;;;;;96.43;5.00;;;;;;;;;;4949336;28;20040;-57
2023/03/16 13:33:22;;;;;;;107.50;5.25;;;;;;;;;;4950143;28;20033;-60
2023/03/16 13:35:48;;;;;;;83.65;4.45;;;;;;;;;;4950038;28;20050;-58
2023/03/16 13:38:16;;;;;;;98.40;5.38;;;;;;;;;;4951802;28;20055;-59
2023/03/16 13:40:46;;;;;;;132.43;6.55;;;;;;;;;;4948727;28;20405;-59
2023/03/16 13:43:16;;;;;;;109.60;5.78;;;;;;;;;;4949099;28;20102;-59
2023/03/16 13:45:41;;;;;;;78.80;4.70;;;;;;;;;;4950267;28;20042;-60
2023/03/16 13:48:10;;;;;;;91.93;5.20;;;;;;;;;;4950485;28;20027;-59
2023/03/16 13:50:38;;;;;;;110.22;5.75;;;;;;;;;;4950342;28;20031;-59
2023/03/16 13:53:09;;;;;;;126.90;6.35;;;;;;;;;;4947804;28;20030;-58
2023/03/16 13:55:35;;;;;;;91.07;4.68;;;;;;;;;;4954733;28;20066;-58
2023/03/16 13:58:01;;;;;;;109.25;5.82;;;;;;;;;;4950163;28;20027;-59
2023/03/16 14:00:31;;;;;;;95.28;5.28;;;;;;;;;;4951890;28;20038;-59
2023/03/16 14:02:57;;;;;;;93.82;5.05;;;;;;;;;;4949920;28;20030;-59
2023/03/16 14:05:31;;;;;;;109.15;5.93;;;;;;;;;;4949572;28;20061;-60
2023/03/16 14:07:59;;;;;;;103.88;5.95;;;;;;;;;;4949099;28;20465;-60
2023/03/16 14:10:26;;;;;;;118.70;6.22;;;;;;;;;;4950611;28;20106;-60
2023/03/16 14:12:56;;;;;;;104.00;5.57;;;;;;;;;;4950107;28;20034;-57
2023/03/16 14:15:24;;;;;;;126.00;6.43;;;;;;;;;;4950290;28;20535;-58
2023/03/16 14:17:50;;;;;;;109.30;5.70;;;;;;;;;;4950774;28;20138;-58
2023/03/16 14:20:24;;;;;;;128.63;6.07;;;;;;;;;;4949275;28;20114;-58
2023/03/16 14:22:51;;;;;;;124.07;6.15;;;;;;;;;;4947426;28;20518;-58
2023/03/16 14:25:21;;;;;;;99.68;5.47;;;;;;;;;;4949021;28;20031;-58
2023/03/16 14:27:46;;;;;;;139.27;6.80;;;;;;;;;;4949614;28;20023;-58
2023/03/16 14:30:18;;;;;;;111.53;5.80;;;;;;;;;;4950674;28;20034;-57